< < Back
Terminal Aerodrome Forecast


Current Version              Previous Versions:   1  2  3  4  5  6  7  8  9  

Terminal Aerodrome Forecast

168
FTUS44 KMRX 311720
TAFTYS
TAF
KTYS 311720Z 3118/0118 VRB04KT P6SM SCT050
     FM011600 36004KT P6SM BKN200=

Latest METAR

586
SAUS80 KWBC 312100 RRB
MTRTYS
METAR KTYS 312053Z 29004KT 10SM SCT050 SCT120 SCT250 34/17 A2989 RMK AO2
SLP109 CB DSNT E-SE AND DSNT W-NW T03390167 56023


USA.gov is the U.S. government's official web portal to all federal, state and local government web resources and services.